Time;durP1;ratioP1;P1;durP2;ratioP2;P2;SDS_P1;SDS_P2;PMS_P1;PMS_P2;Temp;Humidity;BMP_temperature;BMP_pressure;BME280_temperature;BME280_humidity;BME280_pressure;Samples;Min_cycle;Max_cycle;Signal;HPM_P1;HPM_P2
2021/04/01 00:02:00;;;;;;;2.83;1.92;;;21.60;60.50;;;;;;4177520;28;20126;-47
2021/04/01 00:04:02;;;;;;;2.93;1.80;;;21.60;60.50;;;;;;4181091;28;20475;-46
2021/04/01 00:06:04;;;;;;;3.22;1.95;;;21.60;60.40;;;;;;4181765;28;20258;-48
2021/04/01 00:08:07;;;;;;;3.53;2.00;;;21.60;60.40;;;;;;4184920;28;20020;-47
2021/04/01 00:10:13;;;;;;;2.95;1.95;;;21.60;60.50;;;;;;4183456;28;20116;-43
2021/04/01 00:12:15;;;;;;;3.03;2.03;;;21.60;60.40;;;;;;4183207;28;20503;-47
2021/04/01 00:14:20;;;;;;;3.10;1.98;;;21.60;60.40;;;;;;4184999;28;20461;-46
2021/04/01 00:16:22;;;;;;;2.42;1.65;;;21.60;60.40;;;;;;4176077;28;20153;-45
2021/04/01 00:18:25;;;;;;;2.72;1.67;;;21.70;60.40;;;;;;4184829;28;20114;-46
2021/04/01 00:20:28;;;;;;;2.80;1.95;;;21.70;60.50;;;;;;4182136;28;20457;-43
2021/04/01 00:22:30;;;;;;;2.88;1.80;;;21.70;60.40;;;;;;4184457;28;20124;-46
2021/04/01 00:24:32;;;;;;;4.00;2.10;;;21.70;60.40;;;;;;4186044;28;20487;-45
2021/04/01 00:26:34;;;;;;;2.20;1.53;;;21.70;60.40;;;;;;4178688;28;20131;-43
2021/04/01 00:28:37;;;;;;;2.95;2.03;;;21.70;60.40;;;;;;4179512;28;20902;-44
2021/04/01 00:30:39;;;;;;;3.20;1.85;;;21.70;60.70;;;;;;4184478;28;20036;-45
2021/04/01 00:32:41;;;;;;;3.28;1.92;;;21.70;60.80;;;;;;4183304;28;20017;-46
2021/04/01 00:34:43;;;;;;;2.72;2.00;;;21.70;60.50;;;;;;4184289;28;20028;-47
2021/04/01 00:36:46;;;;;;;2.95;1.90;;;21.70;60.50;;;;;;4185298;28;20443;-44
2021/04/01 00:38:48;;;;;;;3.58;1.88;;;21.80;60.60;;;;;;4181538;28;20401;-46
2021/04/01 00:40:50;;;;;;;2.10;1.73;;;21.80;60.60;;;;;;4177908;28;20044;-45
2021/04/01 00:42:53;;;;;;;2.97;1.80;;;21.80;60.70;;;;;;4181184;28;20126;-48
2021/04/01 00:45:05;;;;;;;3.95;1.80;;;21.80;60.70;;;;;;4185119;28;20381;-44
2021/04/01 00:47:07;;;;;;;2.42;1.73;;;21.80;60.70;;;;;;4179139;28;20104;-44
2021/04/01 00:49:10;;;;;;;3.72;1.80;;;21.80;61.30;;;;;;4182548;28;20078;-44
2021/04/01 00:51:12;;;;;;;3.63;2.07;;;21.80;60.70;;;;;;4169768;28;20393;-45
2021/04/01 00:53:14;;;;;;;2.50;1.67;;;21.90;60.80;;;;;;4184312;28;20024;-44
2021/04/01 00:55:17;;;;;;;3.65;2.10;;;21.90;60.80;;;;;;4176478;28;20033;-46
2021/04/01 00:57:19;;;;;;;2.72;1.80;;;21.90;61.00;;;;;;4181124;28;20351;-43
2021/04/01 00:59:21;;;;;;;2.75;1.88;;;21.90;61.00;;;;;;4189164;28;20095;-42
2021/04/01 01:03:31;;;;;;;2.60;1.70;;;21.90;61.10;;;;;;4178368;28;20104;-50
2021/04/01 01:05:35;;;;;;;2.80;1.85;;;21.90;61.10;;;;;;4179603;28;20063;-45
2021/04/01 01:07:38;;;;;;;2.58;1.80;;;22.00;61.30;;;;;;4183004;28;20063;-46
2021/04/01 01:09:40;;;;;;;3.00;1.70;;;22.00;61.20;;;;;;4179153;28;20459;-44
2021/04/01 01:11:42;;;;;;;2.25;1.70;;;22.00;61.30;;;;;;4184046;28;20077;-46
2021/04/01 01:13:44;;;;;;;3.20;1.75;;;22.00;61.40;;;;;;4183301;28;20206;-47
2021/04/01 01:15:46;;;;;;;2.20;1.55;;;22.00;61.40;;;;;;4179253;28;20106;-44
2021/04/01 01:17:51;;;;;;;2.63;1.80;;;22.10;61.50;;;;;;4180147;28;20171;-45
2021/04/01 01:19:54;;;;;;;3.97;1.92;;;22.10;61.50;;;;;;4180255;28;20027;-49
2021/04/01 01:21:57;;;;;;;3.53;1.80;;;22.10;61.50;;;;;;4182712;28;20413;-43
2021/04/01 01:24:01;;;;;;;2.90;2.00;;;22.10;61.60;;;;;;4176817;28;20083;-42
2021/04/01 01:26:03;;;;;;;3.22;1.60;;;22.10;61.70;;;;;;4187344;28;20154;-47
2021/04/01 01:28:06;;;;;;;2.28;1.52;;;22.10;61.70;;;;;;4184887;28;20060;-44
2021/04/01 01:30:16;;;;;;;3.67;1.90;;;22.20;61.70;;;;;;4189138;28;20036;-43
2021/04/01 01:32:21;;;;;;;2.78;1.77;;;22.20;61.80;;;;;;4178073;28;20461;-46
2021/04/01 01:34:23;;;;;;;2.10;1.60;;;22.20;61.80;;;;;;4184060;28;20141;-45
2021/04/01 01:36:25;;;;;;;2.33;1.67;;;22.20;61.90;;;;;;4185683;28;20036;-45
2021/04/01 01:38:27;;;;;;;3.47;1.83;;;22.20;61.90;;;;;;4183288;28;20072;-49
2021/04/01 01:40:31;;;;;;;3.88;1.70;;;22.20;61.90;;;;;;4185525;28;20501;-47
2021/04/01 01:42:33;;;;;;;2.40;1.80;;;22.20;62.00;;;;;;4177777;28;20048;-47
2021/04/01 01:44:35;;;;;;;3.50;1.83;;;22.20;62.70;;;;;;4189730;28;20066;-43
2021/04/01 01:46:37;;;;;;;2.78;1.73;;;22.20;62.00;;;;;;4183296;28;20131;-48
2021/04/01 01:48:39;;;;;;;3.67;1.67;;;22.30;62.00;;;;;;4189672;28;20128;-44
2021/04/01 01:50:41;;;;;;;3.92;2.22;;;22.30;62.10;;;;;;4179735;28;20502;-44
2021/04/01 01:52:44;;;;;;;2.85;1.70;;;22.30;62.00;;;;;;4181734;28;20133;-49
2021/04/01 01:54:46;;;;;;;2.25;1.50;;;22.30;62.10;;;;;;4183125;28;20116;-49
2021/04/01 01:56:48;;;;;;;3.00;1.98;;;22.30;62.00;;;;;;4187936;28;20035;-49
2021/04/01 01:58:52;;;;;;;2.83;1.50;;;22.30;62.00;;;;;;4184544;28;20432;-52
2021/04/01 02:00:56;;;;;;;3.45;2.03;;;22.30;62.10;;;;;;4185557;28;20036;-47
2021/04/01 02:03:01;;;;;;;2.80;1.60;;;22.30;62.10;;;;;;4183741;28;20500;-45
2021/04/01 02:05:04;;;;;;;2.50;1.60;;;22.40;62.20;;;;;;4186144;28;20095;-46
2021/04/01 02:07:06;;;;;;;2.83;2.03;;;22.40;62.10;;;;;;4177355;28;20099;-47
2021/04/01 02:09:08;;;;;;;2.88;1.92;;;22.30;62.10;;;;;;4186649;28;20044;-48
2021/04/01 02:11:10;;;;;;;2.97;1.85;;;22.30;62.10;;;;;;4187336;28;20169;-47
2021/04/01 02:13:17;;;;;;;2.40;1.88;;;22.40;62.20;;;;;;4185213;28;20183;-45
2021/04/01 02:15:23;;;;;;;4.22;1.98;;;22.40;62.10;;;;;;4179983;28;20160;-47
2021/04/01 02:17:26;;;;;;;3.55;1.65;;;22.40;62.10;;;;;;4187289;28;20036;-45
2021/04/01 02:19:28;;;;;;;3.70;1.90;;;22.40;62.10;;;;;;4183643;28;20086;-47
2021/04/01 02:21:30;;;;;;;3.53;1.85;;;22.50;62.10;;;;;;4187390;28;20283;-43
2021/04/01 02:23:34;;;;;;;2.85;1.55;;;22.40;62.10;;;;;;4185807;28;20786;-44
2021/04/01 02:25:36;;;;;;;2.55;1.80;;;22.50;62.20;;;;;;4184154;28;20092;-46
2021/04/01 02:27:38;;;;;;;3.17;1.90;;;22.50;62.10;;;;;;4181343;28;20045;-43
2021/04/01 02:29:40;;;;;;;3.83;1.60;;;22.50;62.20;;;;;;4178843;28;20694;-42
2021/04/01 02:31:43;;;;;;;2.72;1.65;;;22.50;62.20;;;;;;4185171;28;20102;-43
2021/04/01 02:33:45;;;;;;;2.05;1.38;;;22.50;62.20;;;;;;4187005;28;20415;-44
2021/04/01 02:35:47;;;;;;;2.33;1.63;;;22.50;62.20;;;;;;4182450;28;20068;-47
2021/04/01 02:37:49;;;;;;;1.97;1.60;;;22.50;62.20;;;;;;4183020;28;20090;-44
2021/04/01 02:39:51;;;;;;;2.37;1.80;;;22.50;62.30;;;;;;4177834;28;20056;-45
2021/04/01 02:41:53;;;;;;;2.17;1.70;;;22.50;62.20;;;;;;4186551;28;21959;-50
2021/04/01 02:43:55;;;;;;;3.10;1.65;;;22.50;62.30;;;;;;4189527;28;20043;-45
2021/04/01 02:45:58;;;;;;;2.88;1.73;;;22.50;62.30;;;;;;4183072;28;20032;-45
2021/04/01 02:48:01;;;;;;;2.38;1.80;;;22.60;62.30;;;;;;4190716;28;20047;-42
2021/04/01 02:50:05;;;;;;;3.38;1.40;;;22.60;62.40;;;;;;4182752;28;21274;-45
2021/04/01 02:52:08;;;;;;;1.90;1.45;;;22.60;62.20;;;;;;4185039;28;20444;-43
2021/04/01 02:54:10;;;;;;;2.55;1.90;;;22.60;62.20;;;;;;4183520;28;20613;-43
2021/04/01 02:56:12;;;;;;;3.10;1.75;;;22.70;62.20;;;;;;4184446;28;20107;-42
2021/04/01 02:58:15;;;;;;;3.42;2.22;;;22.70;62.20;;;;;;4181428;28;20040;-47
2021/04/01 03:00:22;;;;;;;3.38;1.80;;;22.70;62.20;;;;;;4192396;28;20034;-43
2021/04/01 03:02:27;;;;;;;2.28;1.38;;;22.70;62.20;;;;;;4183067;28;20346;-50
2021/04/01 03:04:31;;;;;;;2.88;1.77;;;22.70;62.30;;;;;;4186760;28;20493;-47
2021/04/01 03:06:34;;;;;;;2.20;1.52;;;22.70;62.30;;;;;;4176608;28;20037;-44
2021/04/01 03:08:36;;;;;;;2.13;1.38;;;22.70;62.40;;;;;;4192415;28;20039;-46
2021/04/01 03:10:38;;;;;;;3.13;1.50;;;22.70;62.40;;;;;;4185718;28;20433;-46
2021/04/01 03:12:41;;;;;;;3.35;1.67;;;22.80;63.00;;;;;;4182868;28;20060;-48
2021/04/01 03:14:42;;;;;;;;;;;22.80;62.30;;;;;;4185082;28;20040;-45
2021/04/01 03:16:44;;;;;;;2.30;1.40;;;22.80;62.30;;;;;;4179239;28;19920;-43
2021/04/01 03:18:46;;;;;;;2.03;1.40;;;22.80;62.30;;;;;;4184409;28;20036;-46
2021/04/01 03:20:49;;;;;;;2.22;1.52;;;22.90;62.30;;;;;;4180529;28;20039;-44
2021/04/01 03:22:51;;;;;;;4.05;1.80;;;22.90;62.20;;;;;;4183860;28;20076;-45
2021/04/01 03:24:53;;;;;;;2.83;1.48;;;22.90;62.30;;;;;;4184593;28;20168;-43
2021/04/01 03:26:55;;;;;;;3.42;1.92;;;23.00;62.40;;;;;;4185712;28;20028;-43
2021/04/01 03:28:57;;;;;;;2.38;1.60;;;23.00;62.30;;;;;;4180948;28;20410;-44
2021/04/01 03:31:03;;;;;;;2.97;1.65;;;22.90;62.20;;;;;;4186363;28;20072;-44
2021/04/01 03:33:05;;;;;;;3.60;1.77;;;23.00;62.30;;;;;;4184735;28;20059;-49
2021/04/01 03:35:09;;;;;;;2.10;1.40;;;23.00;62.30;;;;;;4182712;28;20196;-43
2021/04/01 03:37:11;;;;;;;1.90;1.38;;;23.00;62.30;;;;;;4184945;28;20032;-51
2021/04/01 03:39:14;;;;;;;1.98;1.60;;;23.10;62.30;;;;;;4191554;28;20040;-44
2021/04/01 03:41:16;;;;;;;2.38;1.58;;;23.10;62.30;;;;;;4191110;28;20501;-44
2021/04/01 03:43:19;;;;;;;3.63;1.63;;;23.10;62.50;;;;;;4187047;28;20128;-44
2021/04/01 03:45:21;;;;;;;2.42;1.67;;;23.10;62.00;;;;;;4192155;28;20046;-49
2021/04/01 03:47:24;;;;;;;2.20;1.30;;;23.20;62.10;;;;;;4183535;28;20034;-46
2021/04/01 03:49:26;;;;;;;3.05;1.70;;;23.20;62.10;;;;;;4191772;28;20042;-46
2021/04/01 03:51:28;;;;;;;2.88;1.60;;;23.20;62.00;;;;;;4177686;28;20105;-45
2021/04/01 03:53:30;;;;;;;3.72;1.65;;;23.20;62.00;;;;;;4187885;28;20103;-45
2021/04/01 03:57:34;;;;;;;2.50;1.52;;;23.30;62.00;;;;;;4181017;28;20047;-44
2021/04/01 03:59:43;;;;;;;3.00;1.85;;;23.30;61.90;;;;;;4181637;28;20056;-47
2021/04/01 04:06:40;;;;;;;1.85;1.20;;;23.50;61.60;;;;;;4176678;28;20075;-43
2021/04/01 04:08:58;;;;;;;2.08;1.48;;;23.60;61.60;;;;;;4182392;28;20110;-44
2021/04/01 04:11:17;;;;;;;2.70;1.35;;;23.70;61.40;;;;;;4182848;28;20373;-45
2021/04/01 04:15:22;;;;;;;2.83;1.38;;;23.70;61.20;;;;;;4180656;28;20145;-45
2021/04/01 04:17:24;;;;;;;2.72;1.60;;;23.80;61.20;;;;;;4187411;28;20044;-44
2021/04/01 04:19:26;;;;;;;2.90;1.33;;;23.80;61.10;;;;;;4181534;28;20049;-46
2021/04/01 04:21:28;;;;;;;3.50;1.67;;;23.80;61.10;;;;;;4180844;28;20040;-49
2021/04/01 04:23:31;;;;;;;2.33;1.40;;;23.80;61.10;;;;;;4183582;28;20113;-46
2021/04/01 04:25:34;;;;;;;2.55;1.50;;;23.80;61.10;;;;;;4180596;28;20366;-49
2021/04/01 04:30:02;;;;;;;2.50;1.50;;;23.90;61.10;;;;;;4185488;28;20373;-44
2021/04/01 04:32:04;;;;;;;2.20;1.38;;;23.90;61.10;;;;;;4179408;28;20064;-49
2021/04/01 04:34:06;;;;;;;1.80;1.25;;;23.90;61.00;;;;;;4172570;28;20433;-47
2021/04/01 04:36:09;;;;;;;1.90;1.40;;;23.90;61.10;;;;;;4179216;28;20049;-43
2021/04/01 04:38:11;;;;;;;;;;;23.90;61.00;;;;;;4180162;28;20025;-45
2021/04/01 04:40:14;;;;;;;2.65;1.50;;;23.90;61.00;;;;;;4172326;28;19959;-49
2021/04/01 04:42:17;;;;;;;1.33;1.20;;;24.00;61.10;;;;;;4174825;28;20040;-43
2021/04/01 04:44:19;;;;;;;1.98;1.40;;;23.90;61.10;;;;;;4187552;28;20545;-49
2021/04/01 04:46:21;;;;;;;2.40;1.40;;;23.90;61.10;;;;;;4179159;28;20037;-47
2021/04/01 04:48:23;;;;;;;2.42;1.38;;;24.00;61.10;;;;;;4179341;28;20615;-46
2021/04/01 04:50:25;;;;;;;1.67;1.10;;;24.00;61.20;;;;;;4178197;28;21000;-45
2021/04/01 04:52:28;;;;;;;1.95;1.25;;;24.00;61.10;;;;;;4187720;28;20048;-43
2021/04/01 04:54:30;;;;;;;2.13;1.30;;;;;;;;;;4169556;28;20067;-46
2021/04/01 04:56:33;;;;;;;2.30;1.33;;;;;;;;;;4172991;28;20055;-46
2021/04/01 04:58:46;;;;;;;1.83;1.23;;;;;;;;;;4172511;28;20050;-46
2021/04/01 05:05:13;;;;;;;3.72;1.40;;;24.50;60.10;;;;;;4186278;28;20039;-48
2021/04/01 05:07:15;;;;;;;2.97;1.23;;;24.60;59.90;;;;;;4173979;28;20037;-50
2021/04/01 05:09:17;;;;;;;1.85;1.20;;;24.70;59.70;;;;;;4179365;28;20036;-46
2021/04/01 05:11:19;;;;;;;1.73;1.08;;;24.80;59.50;;;;;;4188442;28;20028;-44
2021/04/01 05:13:21;;;;;;;1.45;1.20;;;24.80;59.30;;;;;;4183075;28;20447;-44
2021/04/01 05:15:23;;;;;;;3.45;1.50;;;24.90;59.10;;;;;;4186816;28;20157;-46
2021/04/01 05:17:25;;;;;;;1.98;1.30;;;25.00;59.00;;;;;;4179635;28;20648;-43
2021/04/01 05:19:29;;;;;;;1.52;1.10;;;25.10;58.90;;;;;;4178921;28;20040;-46
2021/04/01 05:21:57;;;;;;;1.88;1.40;;;25.00;58.80;;;;;;4178178;28;20028;-45
2021/04/01 05:23:55;;;;;;;2.03;1.40;;;25.00;59.00;;;;;;4174654;28;20537;-45
2021/04/01 05:26:21;;;;;;;2.38;1.33;;;25.00;59.00;;;;;;4181641;28;20040;-41
2021/04/01 05:28:25;;;;;;;2.30;1.30;;;25.00;59.10;;;;;;4165136;28;20644;-48
2021/04/01 05:30:27;;;;;;;2.72;1.42;;;24.90;59.20;;;;;;4171742;28;20047;-43
2021/04/01 05:32:42;;;;;;;3.35;1.75;;;24.90;59.30;;;;;;4179619;28;20055;-44
2021/04/01 05:34:44;;;;;;;3.10;1.38;;;25.00;59.30;;;;;;4168969;28;20053;-45
2021/04/01 05:36:46;;;;;;;1.77;1.23;;;25.10;59.20;;;;;;4165917;28;20041;-44
2021/04/01 05:38:51;;;;;;;3.08;1.48;;;25.10;59.00;;;;;;4170177;28;20397;-45
2021/04/01 05:40:53;;;;;;;2.35;1.20;;;25.20;58.80;;;;;;4172199;28;20028;-44
2021/04/01 05:42:56;;;;;;;1.27;1.00;;;25.30;58.60;;;;;;4174056;28;20460;-45
2021/04/01 05:52:41;;;;;;;1.58;1.10;;;25.50;58.30;;;;;;4175436;28;20066;-48
2021/04/01 06:05:23;;;;;;;2.05;1.27;;;25.70;58.00;;;;;;4170067;28;20039;-42
2021/04/01 06:07:37;;;;;;;2.80;1.30;;;25.70;57.90;;;;;;4171731;28;20039;-44
2021/04/01 06:09:47;;;;;;;2.25;1.30;;;25.70;57.80;;;;;;4180041;28;20159;-45
2021/04/01 06:11:55;;;;;;;1.67;1.10;;;25.80;57.80;;;;;;4175041;28;20673;-46
2021/04/01 06:14:10;;;;;;;1.92;1.35;;;25.80;57.80;;;;;;4183288;28;20114;-43
2021/04/01 06:16:13;;;;;;;3.60;1.88;;;25.90;57.70;;;;;;4176276;28;20358;-45
2021/04/01 06:18:21;;;;;;;3.75;1.45;;;25.90;57.60;;;;;;4181789;28;20047;-44
2021/04/01 06:20:24;;;;;;;3.50;1.58;;;26.00;57.70;;;;;;4176669;28;20399;-49
2021/04/01 06:22:29;;;;;;;2.15;1.15;;;26.00;57.60;;;;;;4182305;28;20536;-48
2021/04/01 06:24:32;;;;;;;2.85;1.30;;;26.00;57.50;;;;;;4183953;28;20124;-44
2021/04/01 06:26:41;;;;;;;2.17;1.25;;;26.10;57.50;;;;;;4181000;28;20080;-47
2021/04/01 06:28:55;;;;;;;2.55;1.45;;;26.10;57.50;;;;;;4179917;28;20067;-45
2021/04/01 06:30:58;;;;;;;;;;;26.20;57.40;;;;;;4184276;28;20056;-46
2021/04/01 06:33:09;;;;;;;2.80;1.42;;;26.20;57.30;;;;;;4182491;28;20348;-45
2021/04/01 06:35:25;;;;;;;3.03;1.52;;;26.20;57.30;;;;;;4185081;28;20020;-46
2021/04/01 06:37:53;;;;;;;3.40;1.30;;;26.30;57.40;;;;;;4179445;28;20033;-44
2021/04/01 06:40:03;;;;;;;1.35;1.20;;;26.30;57.20;;;;;;4183970;28;20045;-51
2021/04/01 06:42:23;;;;;;;3.17;1.35;;;26.20;57.00;;;;;;4178785;28;20050;-44
2021/04/01 06:44:47;;;;;;;3.60;1.60;;;26.10;57.10;;;;;;4180763;28;20028;-48
2021/04/01 06:46:50;;;;;;;3.70;1.67;;;26.10;57.20;;;;;;4181646;28;20652;-48
2021/04/01 06:51:23;;;;;;;2.65;1.50;;;26.10;57.60;;;;;;4181071;28;20078;-46
2021/04/01 06:53:41;;;;;;;1.88;1.10;;;26.10;57.50;;;;;;4181770;28;20043;-47
2021/04/01 06:55:55;;;;;;;2.50;1.50;;;26.10;57.40;;;;;;4178457;28;20127;-49
2021/04/01 07:00:42;;;;;;;2.17;1.50;;;26.10;57.50;;;;;;4175585;28;20484;-44
2021/04/01 07:02:58;;;;;;;2.20;1.20;;;26.00;57.30;;;;;;4185219;28;20048;-44
2021/04/01 07:05:26;;;;;;;2.22;1.60;;;26.00;57.60;;;;;;4179609;28;20065;-45
2021/04/01 07:07:29;;;;;;;2.88;1.30;;;26.00;57.60;;;;;;4181155;28;20077;-46
2021/04/01 07:09:46;;;;;;;1.70;1.15;;;26.00;57.70;;;;;;4187541;28;20029;-43
2021/04/01 07:11:49;;;;;;;1.95;1.00;;;26.00;57.50;;;;;;4183687;28;20037;-46
2021/04/01 07:13:55;;;;;;;2.35;1.40;;;26.00;57.40;;;;;;4184346;28;20028;-43
2021/04/01 07:16:37;;;;;;;1.35;1.20;;;26.00;57.30;;;;;;4181851;28;20067;-48
2021/04/01 07:34:34;;;;;;;2.15;1.30;;;25.80;57.60;;;;;;4181656;28;20031;-48
2021/04/01 07:46:12;;;;;;;4.15;1.45;;;25.60;57.70;;;;;;4187868;28;20498;-45
2021/04/01 07:47:31;;;;;;;2.40;1.30;;;25.60;57.80;;;;;;4172190;28;20044;-47
2021/04/01 07:49:35;;;;;;;2.80;1.20;;;25.60;58.20;;;;;;4179076;28;20044;-48
2021/04/01 07:53:45;;;;;;;1.77;1.15;;;25.50;58.20;;;;;;4184091;28;20687;-43
2021/04/01 07:56:18;;;;;;;1.75;1.13;;;25.50;58.00;;;;;;4178160;28;20465;-43
2021/04/01 08:00:53;;;;;;;1.70;1.17;;;25.40;58.30;;;;;;4182553;28;20052;-42
2021/04/01 08:04:58;;;;;;;1.42;1.30;;;25.30;58.40;;;;;;4182111;28;20024;-43
2021/04/01 08:07:15;;;;;;;3.65;1.55;;;25.30;58.40;;;;;;4180001;28;20064;-48
2021/04/01 08:09:23;;;;;;;2.25;1.45;;;25.30;58.20;;;;;;4177832;28;20039;-47
2021/04/01 08:11:30;;;;;;;2.75;1.80;;;25.30;58.50;;;;;;4182263;28;20455;-43
2021/04/01 08:13:38;;;;;;;1.85;1.45;;;25.30;58.70;;;;;;4180506;28;21287;-43
2021/04/01 08:15:50;;;;;;;3.33;1.80;;;25.20;58.80;;;;;;4179137;28;20300;-47
2021/04/01 08:20:00;;;;;;;3.20;1.70;;;25.20;58.80;;;;;;4180175;28;20080;-43
2021/04/01 08:22:05;;;;;;;4.30;2.00;;;25.20;58.90;;;;;;4189531;28;20580;-43
2021/04/01 08:24:18;;;;;;;3.30;1.85;;;25.20;59.00;;;;;;4178592;28;20116;-46
2021/04/01 08:26:38;;;;;;;3.47;1.90;;;25.20;59.80;;;;;;4185931;28;20039;-42
2021/04/01 08:33:36;;;;;;;3.70;2.25;;;25.10;59.20;;;;;;4185291;28;20105;-43
2021/04/01 08:35:39;;;;;;;2.85;1.83;;;25.10;59.10;;;;;;4186631;28;20040;-46
2021/04/01 08:37:57;;;;;;;3.78;2.10;;;25.10;59.20;;;;;;4186563;28;20149;-45
2021/04/01 08:40:01;;;;;;;3.83;2.30;;;25.10;59.20;;;;;;4181168;28;20410;-41
2021/04/01 08:42:12;;;;;;;4.22;2.28;;;25.10;59.20;;;;;;4177360;28;20048;-46
2021/04/01 08:44:27;;;;;;;3.63;2.33;;;25.10;59.30;;;;;;4180335;28;20063;-44
2021/04/01 08:46:53;;;;;;;4.13;2.45;;;25.10;59.40;;;;;;4176020;28;20062;-50
2021/04/01 08:49:24;;;;;;;4.57;2.47;;;25.00;59.20;;;;;;4179700;28;20068;-45
2021/04/01 08:51:43;;;;;;;3.88;2.00;;;25.00;59.30;;;;;;4179724;28;20181;-50
2021/04/01 08:53:49;;;;;;;4.75;2.40;;;25.00;59.40;;;;;;4178873;28;20024;-48
2021/04/01 08:56:27;;;;;;;4.75;2.03;;;25.00;59.50;;;;;;4177346;28;20024;-46
2021/04/01 08:58:39;;;;;;;3.80;2.03;;;25.00;59.60;;;;;;4173147;28;20068;-43
2021/04/01 09:00:43;;;;;;;3.80;2.03;;;25.00;59.70;;;;;;4178566;28;20545;-48
2021/04/01 09:02:50;;;;;;;3.60;2.35;;;25.00;59.80;;;;;;4176780;28;20111;-46
2021/04/01 09:04:54;;;;;;;3.85;1.85;;;25.00;59.90;;;;;;4173598;28;20584;-46
2021/04/01 09:07:27;;;;;;;4.75;2.25;;;24.90;59.90;;;;;;4163351;28;20130;-44
2021/04/01 09:09:36;;;;;;;3.20;2.00;;;24.90;59.80;;;;;;4169631;28;20103;-45
2021/04/01 09:12:25;;;;;;;5.03;1.92;;;24.90;59.90;;;;;;4174584;28;20446;-45
2021/04/01 09:14:10;;;;;;;4.50;2.38;;;24.90;59.90;;;;;;4156048;28;20547;-45
2021/04/01 09:16:26;;;;;;;7.95;2.33;;;24.90;61.10;;;;;;4178017;28;20093;-47
2021/04/01 09:18:30;;;;;;;8.77;2.13;;;24.90;61.50;;;;;;4175798;28;20060;-46
2021/04/01 09:20:34;;;;;;;14.52;2.10;;;24.90;62.20;;;;;;4177405;28;20029;-48
2021/04/01 09:22:42;;;;;;;;;;;24.90;62.70;;;;;;4174011;28;20199;-50
2021/04/01 09:24:44;;;;;;;7.50;2.05;;;25.00;62.80;;;;;;4173072;28;19931;-44
2021/04/01 09:26:49;;;;;;;5.00;1.80;;;25.00;62.80;;;;;;4175735;28;20025;-48
2021/04/01 09:29:04;;;;;;;8.48;2.20;;;25.00;63.70;;;;;;4170298;28;20031;-45
2021/04/01 09:31:08;;;;;;;10.60;2.00;;;25.00;62.80;;;;;;4179342;28;20048;-44
2021/04/01 09:33:25;;;;;;;2.50;1.60;;;25.00;63.00;;;;;;4176939;28;20145;-46
2021/04/01 09:35:28;;;;;;;5.55;1.70;;;25.00;62.90;;;;;;4178018;28;20090;-46
2021/04/01 09:37:31;;;;;;;8.50;2.47;;;25.10;62.70;;;;;;4180875;28;20048;-48
2021/04/01 09:39:35;;;;;;;8.30;2.13;;;25.10;62.70;;;;;;4174591;28;20071;-47
2021/04/01 09:41:37;;;;;;;7.32;1.75;;;25.10;63.00;;;;;;4179700;28;20351;-49
2021/04/01 09:43:50;;;;;;;6.07;1.55;;;25.10;62.90;;;;;;4176705;28;20508;-46
2021/04/01 09:46:02;;;;;;;5.00;1.30;;;25.10;63.00;;;;;;4199319;28;20103;-47
2021/04/01 09:48:07;;;;;;;7.20;1.75;;;25.10;62.90;;;;;;4178225;28;20044;-44
2021/04/01 09:50:12;;;;;;;4.57;1.42;;;25.10;62.80;;;;;;4178341;28;20029;-48
2021/04/01 09:52:28;;;;;;;7.70;1.90;;;25.10;62.90;;;;;;4175343;28;20414;-48
2021/04/01 09:54:31;;;;;;;5.63;1.60;;;25.10;62.80;;;;;;4180511;28;20037;-42
2021/04/01 09:56:34;;;;;;;6.22;1.60;;;25.10;62.80;;;;;;4175855;28;20495;-50
2021/04/01 09:58:40;;;;;;;3.17;1.50;;;25.10;62.80;;;;;;4175174;28;20119;-45
2021/04/01 10:03:21;;;;;;;21.85;2.35;;;25.10;62.90;;;;;;4174061;28;20049;-47
2021/04/01 10:05:24;;;;;;;9.82;2.03;;;25.10;63.00;;;;;;4181622;28;20828;-49
2021/04/01 10:07:28;;;;;;;5.68;1.60;;;25.10;63.00;;;;;;4175421;28;21030;-45
2021/04/01 10:09:29;;;;;;;;;;;25.10;63.00;;;;;;4185001;28;20395;-46
2021/04/01 10:11:34;;;;;;;6.68;1.67;;;25.10;63.00;;;;;;4184202;28;19914;-47
2021/04/01 10:13:37;;;;;;;7.25;1.70;;;25.10;63.10;;;;;;4183934;28;20047;-47
2021/04/01 10:15:40;;;;;;;6.90;1.90;;;25.10;63.10;;;;;;4184159;28;20114;-43
2021/04/01 10:17:43;;;;;;;5.43;1.67;;;25.10;63.90;;;;;;4179481;28;20059;-50
2021/04/01 10:19:57;;;;;;;6.18;1.70;;;25.10;63.20;;;;;;4175198;28;20028;-44
2021/04/01 10:21:59;;;;;;;6.53;1.48;;;25.10;63.10;;;;;;4176110;28;20064;-49
2021/04/01 10:24:04;;;;;;;6.05;1.60;;;25.10;63.40;;;;;;4179026;28;20049;-47
2021/04/01 10:26:08;;;;;;;5.32;1.60;;;25.10;63.10;;;;;;4180643;28;20053;-46
2021/04/01 10:28:27;;;;;;;3.22;1.60;;;25.10;63.10;;;;;;4174370;28;20151;-45
2021/04/01 10:30:35;;;;;;;7.65;1.75;;;25.10;63.20;;;;;;4175792;28;20033;-48
2021/04/01 10:32:45;;;;;;;6.15;1.88;;;25.10;63.20;;;;;;4185605;28;20025;-44
2021/04/01 10:35:05;;;;;;;10.57;1.80;;;25.10;63.30;;;;;;4178939;28;20032;-43
2021/04/01 10:37:14;;;;;;;7.00;1.98;;;25.10;63.30;;;;;;4170041;28;20466;-48
2021/04/01 10:39:18;;;;;;;11.13;2.10;;;25.10;63.40;;;;;;4179990;28;20039;-50
2021/04/01 10:41:21;;;;;;;6.90;1.70;;;25.10;63.30;;;;;;4179549;28;20055;-48
2021/04/01 10:43:31;;;;;;;4.93;1.80;;;25.10;63.30;;;;;;4183426;28;20100;-49
2021/04/01 10:45:36;;;;;;;9.23;2.00;;;25.10;63.30;;;;;;4175934;28;20124;-46
2021/04/01 10:47:46;;;;;;;9.50;1.85;;;25.10;63.30;;;;;;4178248;28;20047;-45
2021/04/01 10:49:49;;;;;;;5.63;1.50;;;25.10;63.20;;;;;;4183224;28;20060;-45
2021/04/01 10:51:59;;;;;;;6.68;1.98;;;25.10;63.30;;;;;;4178052;28;20492;-46
2021/04/01 10:54:09;;;;;;;4.88;1.40;;;25.10;63.70;;;;;;4181315;28;20228;-45
2021/04/01 10:56:13;;;;;;;8.68;1.58;;;25.10;64.00;;;;;;4183515;28;20032;-50
2021/04/01 10:58:16;;;;;;;3.58;1.20;;;25.10;63.20;;;;;;4173333;28;20063;-48
2021/04/01 11:00:20;;;;;;;3.90;1.77;;;25.10;63.10;;;;;;4176600;28;20045;-45
2021/04/01 11:02:35;;;;;;;5.18;1.33;;;25.10;63.20;;;;;;4181199;28;20173;-43
2021/04/01 11:04:40;;;;;;;4.95;1.50;;;25.10;63.20;;;;;;4179313;28;20055;-54
2021/04/01 11:06:45;;;;;;;5.78;0.95;;;25.10;63.20;;;;;;4181734;28;20044;-50
2021/04/01 11:08:50;;;;;;;4.82;0.95;;;25.10;63.20;;;;;;4174296;28;20112;-49
2021/04/01 11:11:02;;;;;;;3.90;0.93;;;25.10;63.60;;;;;;4176640;28;20029;-47
2021/04/01 11:13:08;;;;;;;2.13;1.35;;;25.10;63.20;;;;;;4171692;28;20043;-48
2021/04/01 11:15:14;;;;;;;4.22;1.40;;;25.10;63.20;;;;;;4183703;28;20037;-52
2021/04/01 11:17:22;;;;;;;4.72;1.52;;;25.10;63.20;;;;;;4183288;28;20543;-45
2021/04/01 11:19:27;;;;;;;5.47;1.30;;;25.10;63.30;;;;;;4175982;28;20139;-46
2021/04/01 11:21:33;;;;;;;5.53;1.52;;;25.10;63.20;;;;;;4175515;28;20036;-47
2021/04/01 11:23:35;;;;;;;4.40;1.40;;;25.10;63.40;;;;;;4180540;28;20107;-45
2021/04/01 11:25:39;;;;;;;4.33;1.20;;;25.10;63.50;;;;;;4181726;28;20370;-43
2021/04/01 11:27:55;;;;;;;3.08;1.50;;;25.10;63.20;;;;;;4181636;28;20052;-43
2021/04/01 11:29:59;;;;;;;6.03;1.48;;;25.00;61.90;;;;;;4180532;28;20112;-49
2021/04/01 11:32:19;;;;;;;6.97;2.08;;;25.00;62.30;;;;;;4170603;28;20040;-49
2021/04/01 11:34:21;;;;;;;5.15;1.42;;;24.90;62.70;;;;;;4179208;28;20229;-47
2021/04/01 11:36:25;;;;;;;11.13;1.23;;;24.90;63.20;;;;;;4171716;28;20121;-43
2021/04/01 11:38:29;;;;;;;6.32;1.60;;;24.90;63.40;;;;;;4177221;28;20040;-46
2021/04/01 11:40:31;;;;;;;8.57;1.58;;;24.90;63.60;;;;;;4176632;28;20040;-47
2021/04/01 11:42:34;;;;;;;3.55;1.27;;;24.90;63.60;;;;;;4176516;28;20474;-49
2021/04/01 11:44:38;;;;;;;5.85;1.60;;;24.90;63.90;;;;;;4174446;28;20031;-47
2021/04/01 11:46:41;;;;;;;8.88;2.13;;;24.90;64.00;;;;;;4182831;28;20044;-45
2021/04/01 11:48:45;;;;;;;5.78;1.98;;;24.90;64.10;;;;;;4177089;28;20116;-46
2021/04/01 11:50:47;;;;;;;;;;;25.00;64.20;;;;;;4178285;28;20714;-48
2021/04/01 11:52:55;;;;;;;9.13;2.55;;;24.90;64.20;;;;;;4177036;28;19919;-48
2021/04/01 11:55:12;;;;;;;10.23;1.77;;;24.90;64.50;;;;;;4178459;28;20102;-44
2021/04/01 11:57:30;;;;;;;18.67;2.40;;;24.90;64.50;;;;;;4184812;28;20104;-44
2021/04/01 11:59:35;;;;;;;7.88;2.28;;;24.90;64.50;;;;;;4174596;28;20037;-47
2021/04/01 12:01:52;;;;;;;10.00;2.17;;;25.00;64.60;;;;;;4174690;28;20475;-44
2021/04/01 12:06:00;;;;;;;6.22;2.33;;;24.90;64.50;;;;;;4178647;28;20040;-45
2021/04/01 12:08:03;;;;;;;4.68;1.98;;;24.90;64.40;;;;;;4186261;28;20537;-46
2021/04/01 12:10:05;;;;;;;;;;;25.00;65.10;;;;;;4175270;28;20534;-47
2021/04/01 12:12:07;;;;;;;8.95;1.63;;;24.90;64.40;;;;;;4178927;28;20250;-50
2021/04/01 12:14:11;;;;;;;5.45;2.53;;;24.90;64.40;;;;;;4183998;28;20028;-46
2021/04/01 12:16:23;;;;;;;12.18;2.30;;;24.90;64.30;;;;;;4178131;28;20052;-47
2021/04/01 12:18:26;;;;;;;7.07;2.40;;;24.90;64.20;;;;;;4177669;28;20040;-53
2021/04/01 12:20:28;;;;;;;6.30;2.53;;;24.90;64.20;;;;;;4181079;28;20120;-49
2021/04/01 12:22:36;;;;;;;3.90;2.10;;;24.90;64.20;;;;;;4179943;28;20045;-48
2021/04/01 12:24:39;;;;;;;5.72;2.03;;;24.90;64.20;;;;;;4182666;28;20275;-46